BUR weather

Bob Hope Airport
Burbank, California, United States

Public forecast

Using degrees Fahrenheit for public forecast. Weather courtesy of forecast.io.

Current aviation weather report (METAR) for Bob Hope Airport

Retrieved 2019/11/20 00:53 UTC (13 minutes ago):

KBUR 200053Z 16011KT 10SM OVC100 19/09 A2963 RMK AO2 SLP023 T01940089

Aviation forecast (TAF) for Bob Hope Airport

Retrieved 2019-11-20 00:45 UTC (21 minutes ago):

TAF KBUR 192342Z 2000/2024 13008KT P6SM OVC100 FM200200 VRB03KT P6SM SCT050 OVC080 FM200900 VRB03KT P6SM VCSH SCT025 OVC040 FM201200 VRB03KT 5SM -SHRA BR BKN025 OVC040 FM201500 VRB03KT 4SM SHRA OVC025 FM202000 21007KT 5SM -SHRA BKN025 OVC040